sensor_id;sensor_type;location;lat;lon;timestamp;temperature;humidity
25937;DHT22;13733;51.178;4.450;2023-03-14T00:00:51;11.80;99.90
25937;DHT22;13733;51.178;4.450;2023-03-14T00:03:16;11.70;99.90
25937;DHT22;13733;51.178;4.450;2023-03-14T00:05:42;11.80;99.90
25937;DHT22;13733;51.178;4.450;2023-03-14T00:08:08;11.80;99.90
25937;DHT22;13733;51.178;4.450;2023-03-14T00:10:36;11.80;99.90
25937;DHT22;13733;51.178;4.450;2023-03-14T00:13:01;11.80;99.90
25937;DHT22;13733;51.178;4.450;2023-03-14T00:15:27;11.90;99.90
25937;DHT22;13733;51.178;4.450;2023-03-14T00:17:53;12.00;99.90
25937;DHT22;13733;51.178;4.450;2023-03-14T00:20:19;11.90;99.90
25937;DHT22;13733;51.178;4.450;2023-03-14T00:22:47;11.80;99.90
25937;DHT22;13733;51.178;4.450;2023-03-14T00:25:14;11.80;99.90
25937;DHT22;13733;51.178;4.450;2023-03-14T00:27:39;11.90;99.90
25937;DHT22;13733;51.178;4.450;2023-03-14T00:30:06;11.70;99.90
25937;DHT22;13733;51.178;4.450;2023-03-14T00:32:33;11.80;99.90
25937;DHT22;13733;51.178;4.450;2023-03-14T00:35:01;11.70;99.90
25937;DHT22;13733;51.178;4.450;2023-03-14T00:37:27;11.80;99.90
25937;DHT22;13733;51.178;4.450;2023-03-14T00:39:52;11.70;99.90
25937;DHT22;13733;51.178;4.450;2023-03-14T00:42:18;11.50;99.90
25937;DHT22;13733;51.178;4.450;2023-03-14T00:44:44;11.60;99.90
25937;DHT22;13733;51.178;4.450;2023-03-14T00:47:11;11.90;99.90
25937;DHT22;13733;51.178;4.450;2023-03-14T00:49:37;12.10;99.90
25937;DHT22;13733;51.178;4.450;2023-03-14T00:52:06;12.00;99.90
25937;DHT22;13733;51.178;4.450;2023-03-14T00:54:32;11.80;99.90
25937;DHT22;13733;51.178;4.450;2023-03-14T00:57:00;11.70;99.90
25937;DHT22;13733;51.178;4.450;2023-03-14T00:59:25;11.90;99.90
25937;DHT22;13733;51.178;4.450;2023-03-14T01:01:52;11.90;99.90
25937;DHT22;13733;51.178;4.450;2023-03-14T01:04:18;11.90;99.90
25937;DHT22;13733;51.178;4.450;2023-03-14T01:06:44;12.00;99.90
25937;DHT22;13733;51.178;4.450;2023-03-14T01:09:10;12.00;99.90
25937;DHT22;13733;51.178;4.450;2023-03-14T01:11:36;12.00;99.90
25937;DHT22;13733;51.178;4.450;2023-03-14T01:14:02;11.90;99.90
25937;DHT22;13733;51.178;4.450;2023-03-14T01:16:32;12.00;99.90
25937;DHT22;13733;51.178;4.450;2023-03-14T01:19:00;12.00;99.90
25937;DHT22;13733;51.178;4.450;2023-03-14T01:21:29;11.90;99.90
25937;DHT22;13733;51.178;4.450;2023-03-14T01:23:57;12.00;99.90
25937;DHT22;13733;51.178;4.450;2023-03-14T01:26:24;11.70;99.90
25937;DHT22;13733;51.178;4.450;2023-03-14T01:28:53;11.60;99.90
25937;DHT22;13733;51.178;4.450;2023-03-14T01:31:19;11.40;99.90
25937;DHT22;13733;51.178;4.450;2023-03-14T01:33:45;11.50;99.90
25937;DHT22;13733;51.178;4.450;2023-03-14T01:36:13;11.60;99.90
25937;DHT22;13733;51.178;4.450;2023-03-14T01:38:40;11.70;99.90
25937;DHT22;13733;51.178;4.450;2023-03-14T01:41:17;11.50;99.90
25937;DHT22;13733;51.178;4.450;2023-03-14T01:43:44;11.40;99.90
25937;DHT22;13733;51.178;4.450;2023-03-14T01:49:11;11.40;99.90
25937;DHT22;13733;51.178;4.450;2023-03-14T01:51:56;11.40;99.90
25937;DHT22;13733;51.178;4.450;2023-03-14T01:54:34;11.40;99.90
25937;DHT22;13733;51.178;4.450;2023-03-14T01:57:08;11.50;99.90
25937;DHT22;13733;51.178;4.450;2023-03-14T01:59:37;11.60;99.90
25937;DHT22;13733;51.178;4.450;2023-03-14T02:02:06;11.40;99.90
25937;DHT22;13733;51.178;4.450;2023-03-14T02:04:35;11.40;99.90
25937;DHT22;13733;51.178;4.450;2023-03-14T02:09:50;11.30;99.90
25937;DHT22;13733;51.178;4.450;2023-03-14T02:12:22;11.40;99.90
25937;DHT22;13733;51.178;4.450;2023-03-14T02:15:04;11.50;99.90
25937;DHT22;13733;51.178;4.450;2023-03-14T02:17:50;11.20;99.90
25937;DHT22;13733;51.178;4.450;2023-03-14T02:24:04;11.40;99.90
25937;DHT22;13733;51.178;4.450;2023-03-14T02:29:28;11.40;99.90
25937;DHT22;13733;51.178;4.450;2023-03-14T02:31:55;11.30;99.90
25937;DHT22;13733;51.178;4.450;2023-03-14T02:34:21;11.30;99.90
25937;DHT22;13733;51.178;4.450;2023-03-14T02:36:47;11.20;99.90
25937;DHT22;13733;51.178;4.450;2023-03-14T02:39:23;11.40;99.90
25937;DHT22;13733;51.178;4.450;2023-03-14T02:41:51;11.50;99.90
25937;DHT22;13733;51.178;4.450;2023-03-14T02:44:18;11.60;99.90
25937;DHT22;13733;51.178;4.450;2023-03-14T02:46:44;11.50;99.90
25937;DHT22;13733;51.178;4.450;2023-03-14T02:49:13;11.50;99.90
25937;DHT22;13733;51.178;4.450;2023-03-14T02:51:40;11.40;99.90
25937;DHT22;13733;51.178;4.450;2023-03-14T02:54:08;11.50;99.90
25937;DHT22;13733;51.178;4.450;2023-03-14T02:56:34;11.50;99.90
25937;DHT22;13733;51.178;4.450;2023-03-14T02:59:05;11.50;99.90
25937;DHT22;13733;51.178;4.450;2023-03-14T03:01:37;11.40;99.90
25937;DHT22;13733;51.178;4.450;2023-03-14T03:04:04;11.20;99.90
25937;DHT22;13733;51.178;4.450;2023-03-14T03:06:30;11.30;99.90
25937;DHT22;13733;51.178;4.450;2023-03-14T03:08:56;11.40;99.90
25937;DHT22;13733;51.178;4.450;2023-03-14T03:11:22;11.20;99.90
25937;DHT22;13733;51.178;4.450;2023-03-14T03:13:47;11.20;99.90
25937;DHT22;13733;51.178;4.450;2023-03-14T03:16:14;11.30;99.90
25937;DHT22;13733;51.178;4.450;2023-03-14T03:18:40;11.20;99.90
25937;DHT22;13733;51.178;4.450;2023-03-14T03:21:06;11.20;99.90
25937;DHT22;13733;51.178;4.450;2023-03-14T03:23:34;11.00;99.90
25937;DHT22;13733;51.178;4.450;2023-03-14T03:26:00;11.00;99.90
25937;DHT22;13733;51.178;4.450;2023-03-14T03:28:26;11.00;99.90
25937;DHT22;13733;51.178;4.450;2023-03-14T03:30:52;11.20;99.90
25937;DHT22;13733;51.178;4.450;2023-03-14T03:33:18;11.30;99.90
25937;DHT22;13733;51.178;4.450;2023-03-14T03:35:46;11.40;99.90
25937;DHT22;13733;51.178;4.450;2023-03-14T03:38:15;11.30;99.90
25937;DHT22;13733;51.178;4.450;2023-03-14T03:40:43;11.20;99.90
25937;DHT22;13733;51.178;4.450;2023-03-14T03:43:09;11.10;99.90
25937;DHT22;13733;51.178;4.450;2023-03-14T03:45:37;11.10;99.90
25937;DHT22;13733;51.178;4.450;2023-03-14T03:48:06;11.00;99.90
25937;DHT22;13733;51.178;4.450;2023-03-14T03:50:31;10.90;99.90
25937;DHT22;13733;51.178;4.450;2023-03-14T03:52:57;10.80;99.90
25937;DHT22;13733;51.178;4.450;2023-03-14T03:55:23;10.80;99.90
25937;DHT22;13733;51.178;4.450;2023-03-14T03:57:49;10.70;99.90
25937;DHT22;13733;51.178;4.450;2023-03-14T04:00:14;10.60;99.90
25937;DHT22;13733;51.178;4.450;2023-03-14T04:02:40;10.60;99.90
25937;DHT22;13733;51.178;4.450;2023-03-14T04:05:08;10.60;99.90
25937;DHT22;13733;51.178;4.450;2023-03-14T04:07:35;10.80;99.90
25937;DHT22;13733;51.178;4.450;2023-03-14T04:10:01;10.90;99.90
25937;DHT22;13733;51.178;4.450;2023-03-14T04:12:34;10.80;99.90
25937;DHT22;13733;51.178;4.450;2023-03-14T04:15:10;10.70;99.90
25937;DHT22;13733;51.178;4.450;2023-03-14T04:17:39;10.80;99.90
25937;DHT22;13733;51.178;4.450;2023-03-14T04:20:06;10.90;99.90
25937;DHT22;13733;51.178;4.450;2023-03-14T04:22:36;10.90;99.90
25937;DHT22;13733;51.178;4.450;2023-03-14T04:25:02;10.90;99.90
25937;DHT22;13733;51.178;4.450;2023-03-14T04:27:31;11.00;99.90
25937;DHT22;13733;51.178;4.450;2023-03-14T04:29:59;10.90;99.90
25937;DHT22;13733;51.178;4.450;2023-03-14T04:32:43;10.80;99.90
25937;DHT22;13733;51.178;4.450;2023-03-14T04:35:09;10.80;99.90
25937;DHT22;13733;51.178;4.450;2023-03-14T04:37:35;10.90;99.90
25937;DHT22;13733;51.178;4.450;2023-03-14T04:40:01;11.00;99.90
25937;DHT22;13733;51.178;4.450;2023-03-14T04:42:32;10.80;99.90
25937;DHT22;13733;51.178;4.450;2023-03-14T04:44:58;10.90;99.90
25937;DHT22;13733;51.178;4.450;2023-03-14T04:47:26;10.90;99.90
25937;DHT22;13733;51.178;4.450;2023-03-14T04:49:53;11.00;99.90
25937;DHT22;13733;51.178;4.450;2023-03-14T04:52:19;11.00;99.90
25937;DHT22;13733;51.178;4.450;2023-03-14T04:54:45;11.00;99.90
25937;DHT22;13733;51.178;4.450;2023-03-14T04:57:11;11.00;99.90
25937;DHT22;13733;51.178;4.450;2023-03-14T04:59:38;10.90;99.90
25937;DHT22;13733;51.178;4.450;2023-03-14T05:02:15;11.00;99.90
25937;DHT22;13733;51.178;4.450;2023-03-14T05:04:54;11.00;99.90
25937;DHT22;13733;51.178;4.450;2023-03-14T05:07:43;11.00;99.90
25937;DHT22;13733;51.178;4.450;2023-03-14T05:10:20;10.90;99.90
25937;DHT22;13733;51.178;4.450;2023-03-14T05:13:03;10.90;99.90
25937;DHT22;13733;51.178;4.450;2023-03-14T05:15:47;10.70;99.90
25937;DHT22;13733;51.178;4.450;2023-03-14T05:18:36;10.80;99.90
25937;DHT22;13733;51.178;4.450;2023-03-14T05:21:22;11.00;99.90
25937;DHT22;13733;51.178;4.450;2023-03-14T05:24:08;10.90;99.90
25937;DHT22;13733;51.178;4.450;2023-03-14T05:26:55;11.00;99.90
25937;DHT22;13733;51.178;4.450;2023-03-14T05:29:30;10.90;99.90
25937;DHT22;13733;51.178;4.450;2023-03-14T05:32:10;10.90;99.90
25937;DHT22;13733;51.178;4.450;2023-03-14T05:34:52;11.00;99.90
25937;DHT22;13733;51.178;4.450;2023-03-14T05:37:44;11.20;99.90
25937;DHT22;13733;51.178;4.450;2023-03-14T05:40:28;11.40;99.90
25937;DHT22;13733;51.178;4.450;2023-03-14T05:43:14;11.40;99.90
25937;DHT22;13733;51.178;4.450;2023-03-14T05:45:52;11.40;99.90
25937;DHT22;13733;51.178;4.450;2023-03-14T05:48:33;11.50;99.90
25937;DHT22;13733;51.178;4.450;2023-03-14T05:51:25;11.50;99.90
25937;DHT22;13733;51.178;4.450;2023-03-14T05:53:50;11.30;99.90
25937;DHT22;13733;51.178;4.450;2023-03-14T05:56:34;11.10;99.90
25937;DHT22;13733;51.178;4.450;2023-03-14T05:59:12;11.00;99.90
25937;DHT22;13733;51.178;4.450;2023-03-14T06:01:52;11.00;99.90
25937;DHT22;13733;51.178;4.450;2023-03-14T06:04:23;11.00;99.90
25937;DHT22;13733;51.178;4.450;2023-03-14T06:06:54;10.90;99.90
25937;DHT22;13733;51.178;4.450;2023-03-14T06:09:20;10.80;99.90
25937;DHT22;13733;51.178;4.450;2023-03-14T06:11:48;10.90;99.90
25937;DHT22;13733;51.178;4.450;2023-03-14T06:14:14;10.80;99.90
25937;DHT22;13733;51.178;4.450;2023-03-14T06:16:44;11.00;99.90
25937;DHT22;13733;51.178;4.450;2023-03-14T06:19:11;11.10;99.90
25937;DHT22;13733;51.178;4.450;2023-03-14T06:21:37;11.00;99.90
25937;DHT22;13733;51.178;4.450;2023-03-14T06:24:03;10.80;99.90
25937;DHT22;13733;51.178;4.450;2023-03-14T06:26:32;10.80;99.90
25937;DHT22;13733;51.178;4.450;2023-03-14T06:28:58;10.90;99.90
25937;DHT22;13733;51.178;4.450;2023-03-14T06:31:32;11.00;99.90
25937;DHT22;13733;51.178;4.450;2023-03-14T06:34:02;11.00;99.90
25937;DHT22;13733;51.178;4.450;2023-03-14T06:36:30;10.70;99.90
25937;DHT22;13733;51.178;4.450;2023-03-14T06:38:57;10.20;99.90
25937;DHT22;13733;51.178;4.450;2023-03-14T06:41:26;9.80;99.90
25937;DHT22;13733;51.178;4.450;2023-03-14T06:43:52;9.30;99.90
25937;DHT22;13733;51.178;4.450;2023-03-14T06:46:19;9.00;99.90
25937;DHT22;13733;51.178;4.450;2023-03-14T06:48:45;8.90;99.90
25937;DHT22;13733;51.178;4.450;2023-03-14T06:51:11;8.90;99.90
25937;DHT22;13733;51.178;4.450;2023-03-14T06:53:37;8.90;99.90
25937;DHT22;13733;51.178;4.450;2023-03-14T06:56:03;8.80;99.90
25937;DHT22;13733;51.178;4.450;2023-03-14T06:58:31;8.80;99.90
25937;DHT22;13733;51.178;4.450;2023-03-14T07:00:57;8.80;99.90
25937;DHT22;13733;51.178;4.450;2023-03-14T07:03:29;8.60;99.90
25937;DHT22;13733;51.178;4.450;2023-03-14T07:05:56;8.70;99.90
25937;DHT22;13733;51.178;4.450;2023-03-14T07:08:22;8.60;99.90
25937;DHT22;13733;51.178;4.450;2023-03-14T07:10:48;8.60;99.90
25937;DHT22;13733;51.178;4.450;2023-03-14T07:13:14;8.70;99.90
25937;DHT22;13733;51.178;4.450;2023-03-14T07:15:51;8.60;99.90
25937;DHT22;13733;51.178;4.450;2023-03-14T07:18:16;8.40;99.90
25937;DHT22;13733;51.178;4.450;2023-03-14T07:20:44;8.40;99.90
25937;DHT22;13733;51.178;4.450;2023-03-14T07:23:10;8.30;99.90
25937;DHT22;13733;51.178;4.450;2023-03-14T07:25:52;8.30;99.90
25937;DHT22;13733;51.178;4.450;2023-03-14T07:28:20;8.30;99.90
25937;DHT22;13733;51.178;4.450;2023-03-14T07:30:49;8.20;99.90
25937;DHT22;13733;51.178;4.450;2023-03-14T07:33:24;8.20;99.90
25937;DHT22;13733;51.178;4.450;2023-03-14T07:35:50;8.10;99.90
25937;DHT22;13733;51.178;4.450;2023-03-14T07:38:16;8.20;99.90
25937;DHT22;13733;51.178;4.450;2023-03-14T07:41:03;8.10;99.90
25937;DHT22;13733;51.178;4.450;2023-03-14T07:43:33;8.10;99.90
25937;DHT22;13733;51.178;4.450;2023-03-14T07:46:01;8.10;99.90
25937;DHT22;13733;51.178;4.450;2023-03-14T07:48:27;8.00;99.90
25937;DHT22;13733;51.178;4.450;2023-03-14T07:50:54;8.00;99.90
25937;DHT22;13733;51.178;4.450;2023-03-14T07:53:20;8.00;99.90
25937;DHT22;13733;51.178;4.450;2023-03-14T07:55:46;7.90;99.90
25937;DHT22;13733;51.178;4.450;2023-03-14T07:58:13;7.90;99.90
25937;DHT22;13733;51.178;4.450;2023-03-14T08:00:39;8.00;99.90
25937;DHT22;13733;51.178;4.450;2023-03-14T08:03:05;8.20;99.90
25937;DHT22;13733;51.178;4.450;2023-03-14T08:05:36;8.10;99.90
25937;DHT22;13733;51.178;4.450;2023-03-14T08:08:03;8.20;99.90
25937;DHT22;13733;51.178;4.450;2023-03-14T08:10:29;8.30;99.90
25937;DHT22;13733;51.178;4.450;2023-03-14T08:12:56;8.30;99.90
25937;DHT22;13733;51.178;4.450;2023-03-14T08:15:23;8.40;99.90
25937;DHT22;13733;51.178;4.450;2023-03-14T08:17:50;8.40;99.90
25937;DHT22;13733;51.178;4.450;2023-03-14T08:20:18;8.40;99.90
25937;DHT22;13733;51.178;4.450;2023-03-14T08:22:47;8.50;99.90
25937;DHT22;13733;51.178;4.450;2023-03-14T08:25:13;8.50;99.90
25937;DHT22;13733;51.178;4.450;2023-03-14T08:27:39;8.60;99.90
25937;DHT22;13733;51.178;4.450;2023-03-14T08:30:11;8.50;99.90
25937;DHT22;13733;51.178;4.450;2023-03-14T08:32:38;8.40;99.90
25937;DHT22;13733;51.178;4.450;2023-03-14T08:35:06;8.60;99.90
25937;DHT22;13733;51.178;4.450;2023-03-14T08:37:33;8.70;99.90
25937;DHT22;13733;51.178;4.450;2023-03-14T08:39:59;8.90;99.90
25937;DHT22;13733;51.178;4.450;2023-03-14T08:42:25;8.90;99.90
25937;DHT22;13733;51.178;4.450;2023-03-14T08:44:51;8.70;99.90
25937;DHT22;13733;51.178;4.450;2023-03-14T08:47:19;8.70;99.90
25937;DHT22;13733;51.178;4.450;2023-03-14T08:49:44;8.80;99.90
25937;DHT22;13733;51.178;4.450;2023-03-14T08:52:10;8.70;99.90
25937;DHT22;13733;51.178;4.450;2023-03-14T08:54:36;8.80;99.90
25937;DHT22;13733;51.178;4.450;2023-03-14T08:57:01;8.80;99.90
25937;DHT22;13733;51.178;4.450;2023-03-14T08:59:27;8.70;99.90
25937;DHT22;13733;51.178;4.450;2023-03-14T09:01:53;8.70;99.90
25937;DHT22;13733;51.178;4.450;2023-03-14T09:04:20;8.40;99.90
25937;DHT22;13733;51.178;4.450;2023-03-14T09:06:46;8.30;99.90
25937;DHT22;13733;51.178;4.450;2023-03-14T09:09:11;8.20;99.90
25937;DHT22;13733;51.178;4.450;2023-03-14T09:11:40;8.30;99.90
25937;DHT22;13733;51.178;4.450;2023-03-14T09:14:06;8.40;99.90
25937;DHT22;13733;51.178;4.450;2023-03-14T09:16:33;8.50;99.90
25937;DHT22;13733;51.178;4.450;2023-03-14T09:18:59;8.40;99.90
25937;DHT22;13733;51.178;4.450;2023-03-14T09:21:26;8.40;99.90
25937;DHT22;13733;51.178;4.450;2023-03-14T09:23:52;8.20;99.90
25937;DHT22;13733;51.178;4.450;2023-03-14T09:26:18;8.20;99.90
25937;DHT22;13733;51.178;4.450;2023-03-14T09:28:44;8.20;99.90
25937;DHT22;13733;51.178;4.450;2023-03-14T09:31:11;8.30;99.90
25937;DHT22;13733;51.178;4.450;2023-03-14T09:33:37;8.40;99.90
25937;DHT22;13733;51.178;4.450;2023-03-14T09:36:04;8.60;99.90
25937;DHT22;13733;51.178;4.450;2023-03-14T09:38:30;8.60;99.90
25937;DHT22;13733;51.178;4.450;2023-03-14T09:40:59;8.40;99.90
25937;DHT22;13733;51.178;4.450;2023-03-14T09:43:29;8.50;99.90
25937;DHT22;13733;51.178;4.450;2023-03-14T09:45:57;8.50;99.90
25937;DHT22;13733;51.178;4.450;2023-03-14T09:48:27;8.40;99.90
25937;DHT22;13733;51.178;4.450;2023-03-14T09:50:56;8.40;99.90
25937;DHT22;13733;51.178;4.450;2023-03-14T09:53:33;8.20;99.90
25937;DHT22;13733;51.178;4.450;2023-03-14T09:56:00;8.30;99.90
25937;DHT22;13733;51.178;4.450;2023-03-14T09:58:26;8.00;99.90
25937;DHT22;13733;51.178;4.450;2023-03-14T10:00:55;7.90;99.90
25937;DHT22;13733;51.178;4.450;2023-03-14T10:05:50;8.10;99.90
25937;DHT22;13733;51.178;4.450;2023-03-14T10:08:16;8.10;99.90
25937;DHT22;13733;51.178;4.450;2023-03-14T10:10:42;8.10;99.90
25937;DHT22;13733;51.178;4.450;2023-03-14T10:13:19;8.20;99.90
25937;DHT22;13733;51.178;4.450;2023-03-14T10:15:52;8.40;99.90
25937;DHT22;13733;51.178;4.450;2023-03-14T10:18:20;8.30;99.90
25937;DHT22;13733;51.178;4.450;2023-03-14T10:20:48;8.50;99.90
25937;DHT22;13733;51.178;4.450;2023-03-14T10:25:45;8.90;99.90
25937;DHT22;13733;51.178;4.450;2023-03-14T10:28:24;9.10;99.90
25937;DHT22;13733;51.178;4.450;2023-03-14T10:30:52;9.30;99.90
25937;DHT22;13733;51.178;4.450;2023-03-14T10:33:27;9.20;99.90
25937;DHT22;13733;51.178;4.450;2023-03-14T10:36:01;9.10;99.90
25937;DHT22;13733;51.178;4.450;2023-03-14T10:38:33;9.20;99.90
25937;DHT22;13733;51.178;4.450;2023-03-14T10:41:17;9.20;99.90
25937;DHT22;13733;51.178;4.450;2023-03-14T10:43:43;9.20;99.90
25937;DHT22;13733;51.178;4.450;2023-03-14T10:46:14;9.30;99.90
25937;DHT22;13733;51.178;4.450;2023-03-14T10:49:05;9.70;99.90
25937;DHT22;13733;51.178;4.450;2023-03-14T10:51:32;10.10;99.90
25937;DHT22;13733;51.178;4.450;2023-03-14T10:54:04;10.30;99.90
25937;DHT22;13733;51.178;4.450;2023-03-14T10:56:37;10.20;99.90
25937;DHT22;13733;51.178;4.450;2023-03-14T10:59:07;10.30;99.90
25937;DHT22;13733;51.178;4.450;2023-03-14T11:01:58;10.50;99.90
25937;DHT22;13733;51.178;4.450;2023-03-14T11:07:44;11.20;99.90
25937;DHT22;13733;51.178;4.450;2023-03-14T11:28:57;11.00;99.90
25937;DHT22;13733;51.178;4.450;2023-03-14T11:31:29;10.70;99.90
25937;DHT22;13733;51.178;4.450;2023-03-14T11:34:11;10.20;99.90
25937;DHT22;13733;51.178;4.450;2023-03-14T11:37:01;9.70;99.90
25937;DHT22;13733;51.178;4.450;2023-03-14T11:40:18;9.30;99.90
25937;DHT22;13733;51.178;4.450;2023-03-14T11:42:26;8.80;99.90
25937;DHT22;13733;51.178;4.450;2023-03-14T11:44:54;8.40;99.90
25937;DHT22;13733;51.178;4.450;2023-03-14T11:47:33;8.30;99.90
25937;DHT22;13733;51.178;4.450;2023-03-14T11:50:19;8.40;99.90
25937;DHT22;13733;51.178;4.450;2023-03-14T11:55:33;8.90;99.90
25937;DHT22;13733;51.178;4.450;2023-03-14T11:58:26;9.30;99.90
25937;DHT22;13733;51.178;4.450;2023-03-14T12:00:54;9.90;99.90
25937;DHT22;13733;51.178;4.450;2023-03-14T12:03:45;10.70;99.90
25937;DHT22;13733;51.178;4.450;2023-03-14T12:08:59;11.70;99.90
25937;DHT22;13733;51.178;4.450;2023-03-14T12:16:54;11.90;99.90
25937;DHT22;13733;51.178;4.450;2023-03-14T12:21:55;11.90;99.90
25937;DHT22;13733;51.178;4.450;2023-03-14T12:24:26;12.00;99.90
25937;DHT22;13733;51.178;4.450;2023-03-14T12:26:55;11.70;99.90
25937;DHT22;13733;51.178;4.450;2023-03-14T12:29:22;11.60;99.90
25937;DHT22;13733;51.178;4.450;2023-03-14T12:34:54;10.80;99.90
25937;DHT22;13733;51.178;4.450;2023-03-14T12:37:37;10.10;99.90
25937;DHT22;13733;51.178;4.450;2023-03-14T12:40:29;9.90;99.90
25937;DHT22;13733;51.178;4.450;2023-03-14T12:43:01;9.80;99.90
25937;DHT22;13733;51.178;4.450;2023-03-14T12:45:30;10.00;99.90
25937;DHT22;13733;51.178;4.450;2023-03-14T12:48:23;10.10;99.90
25937;DHT22;13733;51.178;4.450;2023-03-14T12:51:04;10.50;99.90
25937;DHT22;13733;51.178;4.450;2023-03-14T12:56:45;11.20;99.90
25937;DHT22;13733;51.178;4.450;2023-03-14T13:04:52;11.00;99.90
25937;DHT22;13733;51.178;4.450;2023-03-14T13:10:18;10.40;99.90
25937;DHT22;13733;51.178;4.450;2023-03-14T13:13:03;10.20;99.90
25937;DHT22;13733;51.178;4.450;2023-03-14T13:15:47;10.20;99.90
25937;DHT22;13733;51.178;4.450;2023-03-14T13:20:54;10.20;99.90
25937;DHT22;13733;51.178;4.450;2023-03-14T13:23:25;10.30;99.90
25937;DHT22;13733;51.178;4.450;2023-03-14T13:25:52;10.50;99.90
25937;DHT22;13733;51.178;4.450;2023-03-14T13:28:18;10.40;99.90
25937;DHT22;13733;51.178;4.450;2023-03-14T13:30:54;10.50;99.90
25937;DHT22;13733;51.178;4.450;2023-03-14T13:33:22;10.60;99.90
25937;DHT22;13733;51.178;4.450;2023-03-14T13:35:59;10.80;99.90
25937;DHT22;13733;51.178;4.450;2023-03-14T13:38:27;10.80;99.90
25937;DHT22;13733;51.178;4.450;2023-03-14T13:40:58;11.00;94.50
25937;DHT22;13733;51.178;4.450;2023-03-14T13:43:33;11.10;94.60
25937;DHT22;13733;51.178;4.450;2023-03-14T13:46:21;11.10;93.70
25937;DHT22;13733;51.178;4.450;2023-03-14T13:48:50;11.10;94.00
25937;DHT22;13733;51.178;4.450;2023-03-14T13:51:20;11.10;93.10
25937;DHT22;13733;51.178;4.450;2023-03-14T13:53:55;11.10;90.40
25937;DHT22;13733;51.178;4.450;2023-03-14T13:56:29;10.90;85.00
25937;DHT22;13733;51.178;4.450;2023-03-14T13:58:55;10.70;86.90
25937;DHT22;13733;51.178;4.450;2023-03-14T14:01:32;10.70;90.70
25937;DHT22;13733;51.178;4.450;2023-03-14T14:04:09;10.70;91.70
25937;DHT22;13733;51.178;4.450;2023-03-14T14:06:46;10.70;93.20
25937;DHT22;13733;51.178;4.450;2023-03-14T14:09:19;10.80;94.90
25937;DHT22;13733;51.178;4.450;2023-03-14T14:11:58;10.70;93.80
25937;DHT22;13733;51.178;4.450;2023-03-14T14:14:30;10.70;92.80
25937;DHT22;13733;51.178;4.450;2023-03-14T14:16:58;10.40;68.70
25937;DHT22;13733;51.178;4.450;2023-03-14T14:19:28;10.20;66.80
25937;DHT22;13733;51.178;4.450;2023-03-14T14:21:55;10.20;66.50
25937;DHT22;13733;51.178;4.450;2023-03-14T14:24:24;9.90;56.40
25937;DHT22;13733;51.178;4.450;2023-03-14T14:26:58;9.90;59.50
25937;DHT22;13733;51.178;4.450;2023-03-14T14:29:30;9.60;55.20
25937;DHT22;13733;51.178;4.450;2023-03-14T14:34:44;9.50;54.50
25937;DHT22;13733;51.178;4.450;2023-03-14T14:39:51;9.30;60.80
25937;DHT22;13733;51.178;4.450;2023-03-14T14:42:19;9.50;59.10
25937;DHT22;13733;51.178;4.450;2023-03-14T14:44:50;9.60;56.40
25937;DHT22;13733;51.178;4.450;2023-03-14T14:47:22;9.60;61.10
25937;DHT22;13733;51.178;4.450;2023-03-14T14:49:49;9.70;65.00
25937;DHT22;13733;51.178;4.450;2023-03-14T14:52:20;9.80;61.10
25937;DHT22;13733;51.178;4.450;2023-03-14T14:57:22;10.00;61.10
25937;DHT22;13733;51.178;4.450;2023-03-14T14:59:49;9.90;69.30
25937;DHT22;13733;51.178;4.450;2023-03-14T15:02:41;9.90;78.20
25937;DHT22;13733;51.178;4.450;2023-03-14T15:05:15;9.90;85.30
25937;DHT22;13733;51.178;4.450;2023-03-14T15:07:42;9.80;87.60
25937;DHT22;13733;51.178;4.450;2023-03-14T15:10:11;9.70;86.00
25937;DHT22;13733;51.178;4.450;2023-03-14T15:12:37;9.70;90.00
25937;DHT22;13733;51.178;4.450;2023-03-14T15:15:03;9.60;90.20
25937;DHT22;13733;51.178;4.450;2023-03-14T15:17:29;9.60;91.50
25937;DHT22;13733;51.178;4.450;2023-03-14T15:19:56;9.50;92.70
25937;DHT22;13733;51.178;4.450;2023-03-14T15:22:23;9.40;93.00
25937;DHT22;13733;51.178;4.450;2023-03-14T15:24:49;9.40;94.10
25937;DHT22;13733;51.178;4.450;2023-03-14T15:27:16;9.40;94.10
25937;DHT22;13733;51.178;4.450;2023-03-14T15:29:42;9.40;94.80
25937;DHT22;13733;51.178;4.450;2023-03-14T15:32:12;9.30;94.50
25937;DHT22;13733;51.178;4.450;2023-03-14T15:34:39;9.30;94.40
25937;DHT22;13733;51.178;4.450;2023-03-14T15:37:05;9.10;92.90
25937;DHT22;13733;51.178;4.450;2023-03-14T15:39:35;9.00;93.30
25937;DHT22;13733;51.178;4.450;2023-03-14T15:42:01;9.00;93.90
25937;DHT22;13733;51.178;4.450;2023-03-14T15:44:27;9.00;93.40
25937;DHT22;13733;51.178;4.450;2023-03-14T15:46:53;8.90;93.40
25937;DHT22;13733;51.178;4.450;2023-03-14T15:49:18;8.70;94.70
25937;DHT22;13733;51.178;4.450;2023-03-14T15:51:44;8.70;96.30
25937;DHT22;13733;51.178;4.450;2023-03-14T15:54:10;8.70;98.70
25937;DHT22;13733;51.178;4.450;2023-03-14T15:56:36;8.60;99.80
25937;DHT22;13733;51.178;4.450;2023-03-14T15:59:02;8.60;99.90
25937;DHT22;13733;51.178;4.450;2023-03-14T16:01:28;8.60;99.80
25937;DHT22;13733;51.178;4.450;2023-03-14T16:03:54;8.60;99.80
25937;DHT22;13733;51.178;4.450;2023-03-14T16:06:19;8.50;98.20
25937;DHT22;13733;51.178;4.450;2023-03-14T16:08:45;8.40;98.10
25937;DHT22;13733;51.178;4.450;2023-03-14T16:11:13;8.50;95.70
25937;DHT22;13733;51.178;4.450;2023-03-14T16:13:40;8.50;94.80
25937;DHT22;13733;51.178;4.450;2023-03-14T16:16:07;8.60;94.50
25937;DHT22;13733;51.178;4.450;2023-03-14T16:18:35;8.60;94.30
25937;DHT22;13733;51.178;4.450;2023-03-14T16:21:04;8.60;94.70
25937;DHT22;13733;51.178;4.450;2023-03-14T16:23:31;8.60;94.70
25937;DHT22;13733;51.178;4.450;2023-03-14T16:25:58;8.60;96.00
25937;DHT22;13733;51.178;4.450;2023-03-14T16:28:24;8.60;96.40
25937;DHT22;13733;51.178;4.450;2023-03-14T16:30:51;8.70;95.90
25937;DHT22;13733;51.178;4.450;2023-03-14T16:33:17;8.80;96.70
25937;DHT22;13733;51.178;4.450;2023-03-14T16:35:56;8.90;97.20
25937;DHT22;13733;51.178;4.450;2023-03-14T16:38:23;9.30;97.10
25937;DHT22;13733;51.178;4.450;2023-03-14T16:41:20;9.60;95.70
25937;DHT22;13733;51.178;4.450;2023-03-14T16:43:46;9.60;95.40
25937;DHT22;13733;51.178;4.450;2023-03-14T16:46:18;9.50;96.10
25937;DHT22;13733;51.178;4.450;2023-03-14T16:48:44;9.40;96.10
25937;DHT22;13733;51.178;4.450;2023-03-14T16:51:10;9.30;96.10
25937;DHT22;13733;51.178;4.450;2023-03-14T16:53:37;9.20;96.30
25937;DHT22;13733;51.178;4.450;2023-03-14T16:56:03;9.20;96.50
25937;DHT22;13733;51.178;4.450;2023-03-14T16:58:29;9.00;97.80
25937;DHT22;13733;51.178;4.450;2023-03-14T17:00:56;9.00;97.80
25937;DHT22;13733;51.178;4.450;2023-03-14T17:03:23;9.10;97.80
25937;DHT22;13733;51.178;4.450;2023-03-14T17:05:52;9.10;97.50
25937;DHT22;13733;51.178;4.450;2023-03-14T17:08:19;9.00;96.90
25937;DHT22;13733;51.178;4.450;2023-03-14T17:10:46;9.00;97.50
25937;DHT22;13733;51.178;4.450;2023-03-14T17:13:12;8.90;98.90